Time;durP1;ratioP1;P1;durP2;ratioP2;P2;SDS_P1;SDS_P2;PMS_P1;PMS_P2;Temp;Humidity;BMP_temperature;BMP_pressure;BME280_temperature;BME280_humidity;BME280_pressure;Samples;Min_cycle;Max_cycle;Signal;HPM_P1;HPM_P2
2022/04/30 00:00:29;;;;;;;;;;;8.40;95.70;;;;;;4934043;28;19927;-86
2022/04/30 00:03:00;;;;;;;;;;;8.50;95.80;;;;;;4954216;28;19927;-85
2022/04/30 00:05:33;;;;;;;;;;;8.50;95.50;;;;;;4938010;29;19930;-85
2022/04/30 00:08:03;;;;;;;;;;;8.50;95.50;;;;;;4925586;29;20306;-85
2022/04/30 00:10:36;;;;;;;;;;;8.50;95.60;;;;;;4946958;28;19930;-86
2022/04/30 00:13:05;;;;;;;;;;;8.50;95.80;;;;;;4962627;28;19926;-86
2022/04/30 00:15:34;;;;;;;;;;;8.50;95.80;;;;;;4977933;28;19926;-86
2022/04/30 00:18:02;;;;;;;;;;;8.50;95.80;;;;;;4959343;28;19930;-85
2022/04/30 00:20:29;;;;;;;;;;;8.70;95.70;;;;;;4961614;28;19926;-86
2022/04/30 00:22:57;;;;;;;;;;;8.50;95.90;;;;;;4959817;28;19933;-85
2022/04/30 00:25:25;;;;;;;;;;;8.60;95.50;;;;;;4965893;28;19930;-86
2022/04/30 00:27:52;;;;;;;;;;;8.40;95.50;;;;;;4980334;28;19930;-85
2022/04/30 00:30:20;;;;;;;;;;;8.60;95.50;;;;;;4942237;28;19941;-85
2022/04/30 00:32:48;;;;;;;;;;;8.60;95.40;;;;;;4928820;28;19930;-85
2022/04/30 00:35:15;;;;;;;;;;;8.60;95.60;;;;;;4944453;28;19933;-85
2022/04/30 00:37:43;;;;;;;;;;;8.60;95.50;;;;;;4963672;28;19927;-85
2022/04/30 00:40:10;;;;;;;;;;;8.60;95.40;;;;;;4959402;29;19930;-85
2022/04/30 00:42:40;;;;;;;;;;;8.70;95.30;;;;;;4937779;28;20374;-86
2022/04/30 00:45:09;;;;;;;;;;;8.10;95.20;;;;;;4993013;28;20234;-85
2022/04/30 00:47:37;;;;;;;;;;;8.60;95.40;;;;;;4960951;28;19927;-84
2022/04/30 00:50:06;;;;;;;;;;;8.60;95.30;;;;;;4947508;28;20707;-85
2022/04/30 00:52:33;;;;;;;;;;;8.50;95.60;;;;;;4993837;28;19926;-85
2022/04/30 00:55:02;;;;;;;;;;;8.50;95.50;;;;;;4959007;28;19931;-86
2022/04/30 00:57:31;;;;;;;;;;;8.50;95.50;;;;;;4947256;28;19930;-85
2022/04/30 01:00:00;;;;;;;;;;;8.40;95.40;;;;;;4964952;28;19926;-86
2022/04/30 01:02:28;;;;;;;;;;;6.40;95.10;;;;;;4961626;28;20006;-85
2022/04/30 01:05:19;;;;;;;;;;;8.40;95.40;;;;;;4925703;29;20217;-85
2022/04/30 01:07:47;;;;;;;;;;;8.40;95.60;;;;;;4941044;28;19926;-86
2022/04/30 01:10:15;;;;;;;;;;;8.40;95.70;;;;;;4961033;28;19933;-86
2022/04/30 01:12:43;;;;;;;;;;;8.30;95.70;;;;;;4946046;28;19942;-85
2022/04/30 01:15:11;;;;;;;;;;;8.30;95.80;;;;;;4979755;28;19926;-86
2022/04/30 01:17:41;;;;;;;;;;;8.30;95.90;;;;;;4946328;28;19934;-85
2022/04/30 01:20:09;;;;;;;;;;;8.30;95.70;;;;;;4964544;28;19934;-86
2022/04/30 01:22:43;;;;;;;;;;;8.30;95.70;;;;;;4979909;28;19930;-85
2022/04/30 01:25:24;;;;;;;;;;;8.30;95.90;;;;;;4946841;28;20401;-85
2022/04/30 01:27:52;;;;;;;;;;;8.20;96.10;;;;;;4980018;28;19926;-84
2022/04/30 01:30:19;;;;;;;;;;;8.20;96.10;;;;;;4947123;28;19933;-86
2022/04/30 01:38:20;;;;;;;;;;;8.20;95.90;;;;;;4981231;28;19926;-86
2022/04/30 01:40:48;;;;;;;;;;;8.20;96.00;;;;;;4982107;28;19930;-85
2022/04/30 01:43:16;;;;;;;;;;;8.20;95.90;;;;;;4967015;28;19926;-85
2022/04/30 01:45:44;;;;;;;;;;;8.10;96.20;;;;;;4978898;28;19930;-85
2022/04/30 01:48:14;;;;;;;;;;;8.10;96.20;;;;;;4978925;28;19937;-86
2022/04/30 01:50:42;;;;;;;;;;;8.10;96.20;;;;;;4978125;28;19926;-85
2022/04/30 01:53:10;;;;;;;;;;;8.10;96.30;;;;;;4995554;28;19914;-86
2022/04/30 01:55:38;;;;;;;;;;;8.10;96.20;;;;;;4997192;28;19926;-85
2022/04/30 01:58:11;;;;;;;;;;;8.10;96.10;;;;;;4966626;28;19936;-86
2022/04/30 02:00:39;;;;;;;;;;;8.10;96.20;;;;;;4976670;28;19933;-86
2022/04/30 02:03:08;;;;;;;;;;;8.10;96.30;;;;;;4991372;28;19926;-86
2022/04/30 02:05:36;;;;;;;;;;;8.10;96.30;;;;;;4952549;28;19926;-86
2022/04/30 02:08:06;;;;;;;;;;;8.00;96.40;;;;;;4981195;28;19926;-86
2022/04/30 02:10:38;;;;;;;;;;;8.00;96.40;;;;;;4955533;29;19927;-86
2022/04/30 02:13:06;;;;;;;;;;;8.00;96.10;;;;;;4945264;29;19930;-85
2022/04/30 02:15:34;;;;;;;;;;;8.00;96.40;;;;;;4942796;29;19931;-86
2022/04/30 02:18:03;;;;;;;;;;;8.00;96.30;;;;;;4942472;29;19937;-87
2022/04/30 02:20:34;;;;;;;;;;;8.00;96.40;;;;;;4910873;29;19939;-86
2022/04/30 02:23:03;;;;;;;;;;;8.00;96.50;;;;;;4909742;29;19927;-86
2022/04/30 02:25:30;;;;;;;;;;;8.00;96.40;;;;;;4923536;29;19942;-87
2022/04/30 02:27:59;;;;;;;;;;;8.00;96.50;;;;;;4923308;29;19927;-86
2022/04/30 02:30:29;;;;;;;;;;;8.00;96.60;;;;;;4917267;29;19931;-85
2022/04/30 02:32:57;;;;;;;;;;;8.00;96.60;;;;;;4937107;29;19938;-86
2022/04/30 02:35:26;;;;;;;;;;;8.00;96.60;;;;;;4936774;29;20362;-86
2022/04/30 02:37:55;;;;;;;;;;;7.90;96.70;;;;;;4937269;29;19933;-86
2022/04/30 02:40:24;;;;;;;;;;;7.90;96.50;;;;;;4898049;29;19927;-86
2022/04/30 02:42:52;;;;;;;;;;;8.00;96.60;;;;;;4937325;29;20370;-87
2022/04/30 02:45:22;;;;;;;;;;;7.80;96.60;;;;;;4937052;29;19926;-86
2022/04/30 02:47:56;;;;;;;;;;;7.70;96.80;;;;;;4936762;29;19927;-86
2022/04/30 02:50:25;;;;;;;;;;;7.70;96.80;;;;;;4937015;29;19926;-85
2022/04/30 02:52:54;;;;;;;;;;;7.60;96.90;;;;;;4935239;29;20406;-86
2022/04/30 02:55:22;;;;;;;;;;;7.60;96.90;;;;;;4921156;29;19949;-85
2022/04/30 03:00:44;;;;;;;;;;;7.50;96.90;;;;;;4936447;29;20446;-86
2022/04/30 03:03:15;;;;;;;;;;;7.50;97.20;;;;;;4936683;29;19926;-85
2022/04/30 03:05:44;;;;;;;;;;;7.40;97.00;;;;;;4939402;28;19945;-85
2022/04/30 03:08:20;;;;;;;;;;;7.30;97.10;;;;;;4926661;29;20271;-86
2022/04/30 03:10:49;;;;;;;;;;;7.30;97.20;;;;;;4929807;28;20527;-85
2022/04/30 03:13:20;;;;;;;;;;;7.20;97.60;;;;;;4936801;29;19930;-86
2022/04/30 03:15:48;;;;;;;;;;;7.20;97.50;;;;;;4953228;28;19927;-86
2022/04/30 03:23:51;;;;;;;;;;;7.00;97.80;;;;;;4916546;29;20307;-85
2022/04/30 03:26:20;;;;;;;;;;;7.00;97.60;;;;;;4940214;29;20282;-85
2022/04/30 03:28:47;;;;;;;;;;;6.90;97.90;;;;;;4935638;29;19927;-85
2022/04/30 03:31:19;;;;;;;;;;;6.90;97.90;;;;;;4935215;29;19926;-85
2022/04/30 03:33:48;;;;;;;;;;;6.80;98.10;;;;;;4935900;29;19930;-87
2022/04/30 03:36:17;;;;;;;;;;;6.80;98.10;;;;;;4919827;29;19930;-86
2022/04/30 03:38:45;;;;;;;;;;;6.80;97.90;;;;;;4952647;29;20325;-86
2022/04/30 03:41:13;;;;;;;;;;;6.80;98.00;;;;;;4955152;28;20392;-86
2022/04/30 03:43:40;;;;;;;;;;;6.70;98.30;;;;;;4920155;29;19926;-85
2022/04/30 03:46:07;;;;;;;;;;;6.70;98.10;;;;;;4920164;29;19931;-86
2022/04/30 03:48:35;;;;;;;;;;;6.70;98.10;;;;;;4919364;29;20397;-86
2022/04/30 03:51:03;;;;;;;;;;;6.60;98.00;;;;;;4920197;29;19934;-84
2022/04/30 03:53:30;;;;;;;;;;;6.60;98.10;;;;;;4936101;29;19950;-85
2022/04/30 03:55:57;;;;;;;;;;;6.50;98.20;;;;;;4937803;29;19934;-85
2022/04/30 03:58:25;;;;;;;;;;;6.50;98.30;;;;;;4939243;29;19938;-85
2022/04/30 04:00:54;;;;;;;;;;;6.50;98.30;;;;;;4938567;29;19927;-85
2022/04/30 04:03:21;;;;;;;;;;;6.50;98.40;;;;;;4955680;29;19931;-86
2022/04/30 04:05:49;;;;;;;;;;;6.50;98.40;;;;;;4935972;29;19926;-85
2022/04/30 04:08:17;;;;;;;;;;;6.40;98.50;;;;;;4935694;29;19938;-84
2022/04/30 04:10:44;;;;;;;;;;;6.40;98.40;;;;;;4952090;28;19927;-84
2022/04/30 04:18:44;;;;;;;;;;;6.30;98.60;;;;;;4952971;29;19927;-85
2022/04/30 04:21:12;;;;;;;;;;;6.30;98.70;;;;;;4952557;29;19937;-84
2022/04/30 04:26:25;;;;;;;;;;;6.20;98.70;;;;;;4934552;29;19926;-85
2022/04/30 04:28:53;;;;;;;;;;;6.20;98.90;;;;;;4918991;29;19942;-85
2022/04/30 04:31:22;;;;;;;;;;;6.20;98.90;;;;;;4902948;29;19927;-84
2022/04/30 04:33:50;;;;;;;;;;;6.20;98.90;;;;;;4904419;29;19959;-84
2022/04/30 04:36:18;;;;;;;;;;;6.30;99.10;;;;;;4904100;29;19927;-85
2022/04/30 04:38:46;;;;;;;;;;;6.30;99.20;;;;;;4936921;29;20334;-85
2022/04/30 04:41:13;;;;;;;;;;;6.30;99.10;;;;;;4918086;28;20398;-85
2022/04/30 04:43:40;;;;;;;;;;;6.20;99.10;;;;;;4938733;29;19927;-85
2022/04/30 04:46:08;;;;;;;;;;;6.30;99.10;;;;;;4938270;29;19933;-86
2022/04/30 04:48:36;;;;;;;;;;;6.40;99.20;;;;;;4937803;29;19930;-85
2022/04/30 04:51:04;;;;;;;;;;;6.40;99.10;;;;;;4937156;29;20435;-86
2022/04/30 04:53:32;;;;;;;;;;;6.50;99.60;;;;;;4937658;29;19953;-86
2022/04/30 04:56:01;;;;;;;;;;;6.50;99.10;;;;;;4936772;29;19930;-85
2022/04/30 04:58:28;;;;;;;;;;;6.50;99.30;;;;;;4937251;29;19934;-85
2022/04/30 05:00:55;;;;;;;;;;;6.50;99.40;;;;;;4954126;29;20311;-85
2022/04/30 05:03:23;;;;;;;;;;;6.50;99.40;;;;;;4921083;29;19937;-85
2022/04/30 05:05:51;;;;;;;;;;;6.50;99.40;;;;;;4937652;29;19937;-84
2022/04/30 05:08:18;;;;;;;;;;;6.60;99.50;;;;;;4937394;29;19941;-86
2022/04/30 05:10:46;;;;;;;;;;;6.50;99.50;;;;;;4953418;28;19937;-85
2022/04/30 05:13:13;;;;;;;;;;;6.50;99.50;;;;;;4939520;29;19942;-86
2022/04/30 05:15:43;;;;;;;;;;;6.50;99.60;;;;;;4936967;29;19942;-86
2022/04/30 05:18:11;;;;;;;;;;;6.50;99.90;;;;;;4954066;29;20384;-85
2022/04/30 05:20:39;;;;;;;;;;;6.60;99.60;;;;;;4954737;29;19933;-86
2022/04/30 05:23:10;;;;;;;;;;;6.50;99.60;;;;;;4953161;29;19926;-87
2022/04/30 05:25:40;;;;;;;;;;;6.60;99.90;;;;;;4952814;29;19933;-86
2022/04/30 05:28:09;;;;;;;;;;;6.60;99.90;;;;;;4920881;29;19934;-85
2022/04/30 05:30:37;;;;;;;;;;;6.60;99.90;;;;;;4954620;29;19930;-86
2022/04/30 05:33:04;;;;;;;;;;;6.90;99.90;;;;;;4905747;29;19938;-85
2022/04/30 05:35:32;;;;;;;;;;;6.70;99.90;;;;;;4968152;28;20353;-84
2022/04/30 05:37:59;;;;;;;;;;;6.70;99.90;;;;;;4956130;28;19930;-86
2022/04/30 05:40:27;;;;;;;;;;;6.70;99.90;;;;;;4973191;28;19937;-84
2022/04/30 05:42:54;;;;;;;;;;;6.80;99.90;;;;;;4955708;28;19930;-85
2022/04/30 05:45:21;;;;;;;;;;;6.90;99.90;;;;;;4956375;28;19926;-85
2022/04/30 05:47:49;;;;;;;;;;;6.90;99.90;;;;;;4973492;28;20369;-85
2022/04/30 05:50:16;;;;;;;;;;;6.90;99.90;;;;;;4939983;28;19941;-86
2022/04/30 05:52:44;;;;;;;;;;;7.00;99.90;;;;;;4955541;29;19946;-85
2022/04/30 05:55:11;;;;;;;;;;;7.10;99.90;;;;;;4942662;28;19930;-85
2022/04/30 05:57:39;;;;;;;;;;;7.10;99.90;;;;;;4988251;28;20396;-85
2022/04/30 06:00:08;;;;;;;;;;;7.20;99.90;;;;;;4971201;28;19934;-85
2022/04/30 06:02:35;;;;;;;;;;;7.20;99.90;;;;;;4970592;28;19926;-86
2022/04/30 06:05:03;;;;;;;;;;;7.30;99.90;;;;;;4981812;28;20385;-85
2022/04/30 06:07:30;;;;;;;;;;;7.40;99.90;;;;;;4959485;28;20274;-85
2022/04/30 06:09:58;;;;;;;;;;;7.40;99.90;;;;;;4959279;28;19933;-86
2022/04/30 06:12:25;;;;;;;;;;;7.50;99.90;;;;;;4958678;28;19927;-85
2022/04/30 06:14:53;;;;;;;;;;;7.50;99.90;;;;;;4954942;28;19926;-86
2022/04/30 06:17:21;;;;;;;;;;;7.60;99.90;;;;;;4956391;28;19949;-85
2022/04/30 06:19:48;;;;;;;;;;;7.60;99.90;;;;;;4956664;28;19926;-85
2022/04/30 06:22:15;;;;;;;;;;;7.70;99.90;;;;;;4972764;28;19933;-85
2022/04/30 06:24:43;;;;;;;;;;;7.70;99.90;;;;;;4960553;28;20529;-86
2022/04/30 06:27:11;;;;;;;;;;;7.80;99.90;;;;;;4975895;28;19930;-85
2022/04/30 06:29:39;;;;;;;;;;;7.80;99.90;;;;;;4959323;28;19944;-86
2022/04/30 06:32:06;;;;;;;;;;;7.90;99.90;;;;;;4931696;28;19930;-85
2022/04/30 06:34:34;;;;;;;;;;;7.90;99.90;;;;;;4974142;28;19961;-85
2022/04/30 06:37:02;;;;;;;;;;;7.90;99.90;;;;;;4934817;28;19930;-85
2022/04/30 06:39:30;;;;;;;;;;;8.00;99.90;;;;;;4976804;28;19927;-86
2022/04/30 06:41:57;;;;;;;;;;;8.00;99.90;;;;;;4983683;28;19937;-84
2022/04/30 06:44:25;;;;;;;;;;;8.10;99.90;;;;;;4962604;28;19937;-85
2022/04/30 06:46:53;;;;;;;;;;;8.10;99.90;;;;;;4946031;28;19926;-85
2022/04/30 06:49:23;;;;;;;;;;;8.20;99.90;;;;;;4941795;29;19927;-85
2022/04/30 06:51:51;;;;;;;;;;;8.20;99.70;;;;;;4941521;29;19937;-86
2022/04/30 06:57:17;;;;;;;;;;;8.30;99.70;;;;;;4957405;29;19995;-85
2022/04/30 06:59:45;;;;;;;;;;;8.30;99.80;;;;;;4943612;29;19947;-85
2022/04/30 07:02:21;;;;;;;;;;;8.40;99.70;;;;;;4958919;29;19927;-85
2022/04/30 07:04:51;;;;;;;;;;;8.50;99.80;;;;;;4938364;29;19930;-85
2022/04/30 07:07:19;;;;;;;;;;;8.50;99.70;;;;;;4960514;29;19934;-86
2022/04/30 07:09:47;;;;;;;;;;;8.50;99.50;;;;;;4944563;29;20010;-86
2022/04/30 07:12:17;;;;;;;;;;;8.50;99.50;;;;;;4963968;28;19930;-85
2022/04/30 07:14:46;;;;;;;;;;;8.60;99.50;;;;;;4959011;28;19935;-84
2022/04/30 07:17:15;;;;;;;;;;;9.40;99.60;;;;;;4983600;28;19941;-86
2022/04/30 07:19:42;;;;;;;;;;;8.20;99.40;;;;;;4986122;28;19934;-85
2022/04/30 07:22:10;;;;;;;;;;;8.80;99.40;;;;;;4983587;28;19927;-85
2022/04/30 07:24:39;;;;;;;;;;;8.90;99.10;;;;;;4948791;28;21358;-86
2022/04/30 07:27:08;;;;;;;;;;;8.90;99.00;;;;;;4953222;28;20281;-86
2022/04/30 07:29:38;;;;;;;;;;;9.00;98.90;;;;;;4968296;28;19930;-85
2022/04/30 07:32:07;;;;;;;;;;;9.00;98.90;;;;;;4997211;28;19937;-86
2022/04/30 07:34:35;;;;;;;;;;;9.00;98.80;;;;;;4985517;28;19930;-85
2022/04/30 07:37:04;;;;;;;;;;;9.10;98.70;;;;;;4968021;28;19936;-85
2022/04/30 07:39:32;;;;;;;;;;;9.30;98.80;;;;;;4984358;28;19953;-86
2022/04/30 07:41:59;;;;;;;;;;;9.30;98.60;;;;;;4966215;28;19937;-86
2022/04/30 07:44:29;;;;;;;;;;;9.40;98.80;;;;;;4927565;28;19940;-87
2022/04/30 07:46:58;;;;;;;;;;;9.50;98.60;;;;;;4966214;28;19937;-87
2022/04/30 07:49:25;;;;;;;;;;;9.60;98.50;;;;;;4966405;28;19930;-88
2022/04/30 07:51:55;;;;;;;;;;;9.70;98.30;;;;;;4981644;28;20289;-87
2022/04/30 07:54:23;;;;;;;;;;;9.60;98.10;;;;;;4980198;28;20466;-88
2022/04/30 07:56:55;;;;;;;;;;;9.70;98.20;;;;;;4945714;28;19927;-87
2022/04/30 07:59:23;;;;;;;;;;;9.90;98.10;;;;;;4980344;28;19926;-86
2022/04/30 08:01:51;;;;;;;;;;;9.80;97.70;;;;;;4963843;28;19926;-88
2022/04/30 08:04:20;;;;;;;;;;;9.80;97.80;;;;;;4957924;28;19926;-88
2022/04/30 08:06:48;;;;;;;;;;;10.00;97.60;;;;;;4954073;29;19927;-87
2022/04/30 08:09:16;;;;;;;;;;;10.00;97.60;;;;;;4952929;29;19926;-88
2022/04/30 08:11:43;;;;;;;;;;;10.00;97.60;;;;;;4944700;28;19955;-86
2022/04/30 08:14:11;;;;;;;;;;;10.10;97.70;;;;;;4972555;28;19926;-87
2022/04/30 08:16:38;;;;;;;;;;;10.20;97.60;;;;;;4977532;28;20506;-87
2022/04/30 08:19:06;;;;;;;;;;;10.30;97.50;;;;;;4960130;28;20314;-86
2022/04/30 08:21:33;;;;;;;;;;;10.40;97.30;;;;;;4963681;28;19930;-86
2022/04/30 08:24:01;;;;;;;;;;;10.40;97.00;;;;;;4972272;28;19934;-87
2022/04/30 08:26:28;;;;;;;;;;;10.40;97.10;;;;;;4952201;28;19933;-87
2022/04/30 08:28:56;;;;;;;;;;;10.50;97.00;;;;;;4977281;28;19930;-87
2022/04/30 08:31:24;;;;;;;;;;;9.90;96.90;;;;;;4968991;28;19937;-87
2022/04/30 08:33:53;;;;;;;;;;;10.60;96.90;;;;;;4983224;28;21526;-87
2022/04/30 08:36:20;;;;;;;;;;;10.50;96.80;;;;;;4959810;28;19937;-87
2022/04/30 08:38:47;;;;;;;;;;;10.70;96.60;;;;;;4966857;28;19934;-87
2022/04/30 08:41:16;;;;;;;;;;;10.80;96.50;;;;;;4987474;28;19937;-85
2022/04/30 08:43:46;;;;;;;;;;;10.80;96.50;;;;;;4985935;28;19926;-86
2022/04/30 08:46:13;;;;;;;;;;;11.10;96.50;;;;;;4979515;28;19934;-86
2022/04/30 08:48:43;;;;;;;;;;;11.00;96.20;;;;;;4965303;28;19934;-87
2022/04/30 08:51:11;;;;;;;;;;;11.10;96.00;;;;;;4979158;28;19941;-86
2022/04/30 08:53:38;;;;;;;;;;;11.10;96.00;;;;;;4991243;28;19926;-86
2022/04/30 08:56:10;;;;;;;;;;;11.20;96.10;;;;;;4982646;28;19937;-87
2022/04/30 08:58:37;;;;;;;;;;;11.30;96.30;;;;;;4979827;28;20285;-86
2022/04/30 09:01:07;;;;;;;;;;;11.30;96.00;;;;;;4972613;28;19937;-86
2022/04/30 09:03:35;;;;;;;;;;;11.40;96.00;;;;;;4941661;28;19941;-87
2022/04/30 09:06:03;;;;;;;;;;;11.50;95.40;;;;;;4947023;28;19934;-88
2022/04/30 09:08:31;;;;;;;;;;;11.50;95.80;;;;;;4930699;28;19926;-87
2022/04/30 09:11:04;;;;;;;;;;;11.60;95.60;;;;;;4962585;28;19930;-88
2022/04/30 09:13:32;;;;;;;;;;;11.70;95.50;;;;;;4970176;28;20406;-88
2022/04/30 09:16:01;;;;;;;;;;;11.70;95.40;;;;;;4943298;28;20227;-88
2022/04/30 09:18:38;;;;;;;;;;;11.70;95.20;;;;;;4926571;28;19930;-86
2022/04/30 09:21:13;;;;;;;;;;;12.00;95.60;;;;;;4941367;28;19930;-87
2022/04/30 09:23:42;;;;;;;;;;;11.80;95.20;;;;;;4939356;28;19933;-87
2022/04/30 09:26:10;;;;;;;;;;;11.90;95.10;;;;;;4942057;28;19934;-87
2022/04/30 09:28:39;;;;;;;;;;;11.90;94.60;;;;;;4923107;28;19926;-88
2022/04/30 09:31:07;;;;;;;;;;;11.90;94.50;;;;;;4940379;28;19927;-86
2022/04/30 09:33:43;;;;;;;;;;;12.00;94.70;;;;;;4938992;28;19937;-89
2022/04/30 09:38:57;;;;;;;;;;;12.20;94.00;;;;;;4973794;28;19941;-88
2022/04/30 09:41:26;;;;;;;;;;;12.30;93.80;;;;;;4945840;28;19927;-88
2022/04/30 09:43:58;;;;;;;;;;;12.30;93.90;;;;;;4959343;28;19926;-88
2022/04/30 09:46:26;;;;;;;;;;;12.40;93.90;;;;;;4960191;28;19934;-88
2022/04/30 09:54:27;;;;;;;;;;;12.60;94.20;;;;;;4953271;28;19940;-88
2022/04/30 09:56:58;;;;;;;;;;;12.70;94.00;;;;;;4964184;28;19938;-88
2022/04/30 09:59:27;;;;;;;;;;;12.80;93.40;;;;;;4953349;28;19926;-88
2022/04/30 10:01:54;;;;;;;;;;;12.90;93.90;;;;;;4966898;28;19926;-89
2022/04/30 10:04:23;;;;;;;;;;;13.00;94.00;;;;;;4967588;28;19926;-89
2022/04/30 10:06:51;;;;;;;;;;;13.10;93.30;;;;;;4973510;28;20554;-89
2022/04/30 10:09:24;;;;;;;;;;;13.10;93.00;;;;;;4949855;28;19926;-88
2022/04/30 10:11:54;;;;;;;;;;;13.00;93.10;;;;;;4955336;28;19926;-87
2022/04/30 10:14:26;;;;;;;;;;;13.20;93.20;;;;;;4948087;28;19950;-89
2022/04/30 10:17:16;;;;;;;;;;;13.40;93.00;;;;;;4965503;28;19914;-88
2022/04/30 10:19:55;;;;;;;;;;;13.50;92.80;;;;;;4949502;28;19934;-88
2022/04/30 10:22:23;;;;;;;;;;;13.60;92.40;;;;;;4963150;28;19937;-88
2022/04/30 10:24:53;;;;;;;;;;;13.70;92.40;;;;;;4929851;28;19949;-90
2022/04/30 10:27:21;;;;;;;;;;;13.90;92.60;;;;;;4943557;28;19944;-90
2022/04/30 10:29:54;;;;;;;;;;;14.00;92.20;;;;;;4940816;28;19933;-88
2022/04/30 10:32:25;;;;;;;;;;;14.10;92.20;;;;;;4957193;28;19930;-89
2022/04/30 10:34:53;;;;;;;;;;;14.10;92.10;;;;;;4943410;28;19945;-89
2022/04/30 10:37:47;;;;;;;;;;;14.30;91.90;;;;;;4942930;28;19930;-88
2022/04/30 10:40:14;;;;;;;;;;;14.30;91.60;;;;;;4957375;28;19930;-90
2022/04/30 10:42:47;;;;;;;;;;;14.50;91.10;;;;;;4943203;28;19930;-88
2022/04/30 10:45:16;;;;;;;;;;;14.60;91.00;;;;;;4973580;28;19922;-88
2022/04/30 10:47:53;;;;;;;;;;;14.60;91.40;;;;;;4959192;28;19930;-89
2022/04/30 10:50:21;;;;;;;;;;;14.70;91.10;;;;;;4957315;28;19921;-86
2022/04/30 10:53:00;;;;;;;;;;;13.80;90.80;;;;;;4972107;28;19937;-87
2022/04/30 10:55:36;;;;;;;;;;;14.80;90.60;;;;;;4957121;28;19922;-87
2022/04/30 10:58:04;;;;;;;;;;;14.80;91.00;;;;;;4949513;28;19936;-87
2022/04/30 11:00:32;;;;;;;;;;;14.80;90.90;;;;;;4958383;28;19926;-88
2022/04/30 11:03:10;;;;;;;;;;;15.10;91.00;;;;;;4957848;28;19934;-86
2022/04/30 11:05:37;;;;;;;;;;;15.00;89.40;;;;;;4973401;28;19934;-87
2022/04/30 11:08:05;;;;;;;;;;;15.30;88.60;;;;;;4971282;28;19933;-87
2022/04/30 11:10:33;;;;;;;;;;;15.40;86.90;;;;;;4957577;28;19926;-88
2022/04/30 11:13:04;;;;;;;;;;;15.60;87.60;;;;;;4956743;28;20404;-88
2022/04/30 11:15:31;;;;;;;;;;;14.80;87.50;;;;;;4955043;28;19945;-87
2022/04/30 11:17:59;;;;;;;;;;;15.80;88.20;;;;;;4936716;28;19926;-85
2022/04/30 11:20:28;;;;;;;;;;;15.90;88.20;;;;;;4938397;28;20413;-86
2022/04/30 11:23:20;;;;;;;;;;;16.00;87.30;;;;;;4926108;28;19933;-86
2022/04/30 11:25:50;;;;;;;;;;;16.10;87.80;;;;;;4972637;28;19945;-86
2022/04/30 11:28:29;;;;;;;;;;;16.50;87.40;;;;;;4939025;28;19927;-87
2022/04/30 11:30:58;;;;;;;;;;;16.20;85.90;;;;;;4939960;28;19933;-85
2022/04/30 11:33:33;;;;;;;;;;;16.20;84.70;;;;;;4952947;28;20298;-87
2022/04/30 11:36:13;;;;;;;;;;;16.60;84.90;;;;;;4954307;28;19926;-84
2022/04/30 11:38:52;;;;;;;;;;;14.70;83.90;;;;;;4963398;28;20377;-86
2022/04/30 11:41:39;;;;;;;;;;;16.80;86.30;;;;;;4978110;28;20580;-85
2022/04/30 11:44:14;;;;;;;;;;;16.60;83.40;;;;;;4959032;28;19930;-84
2022/04/30 11:46:45;;;;;;;;;;;16.80;82.90;;;;;;4949093;28;19926;-86
2022/04/30 11:49:22;;;;;;;;;;;16.80;85.00;;;;;;4949949;28;19930;-86
2022/04/30 11:52:40;;;;;;;;;;;16.90;83.50;;;;;;4875647;29;19931;-86
2022/04/30 11:55:13;;;;;;;;;;;17.00;82.80;;;;;;4874198;29;20063;-86
2022/04/30 11:58:37;;;;;;;;;;;17.30;83.30;;;;;;4893029;29;19982;-85
2022/04/30 12:01:28;;;;;;;;;;;17.30;81.50;;;;;;4882644;29;19931;-85
2022/04/30 12:04:14;;;;;;;;;;;17.50;82.30;;;;;;4874436;29;20060;-87
2022/04/30 12:06:44;;;;;;;;;;;17.50;82.10;;;;;;4857044;29;19957;-86
2022/04/30 12:09:18;;;;;;;;;;;17.60;81.10;;;;;;4881318;29;19938;-85
2022/04/30 12:11:53;;;;;;;;;;;17.60;81.80;;;;;;4856936;29;19938;-84
2022/04/30 12:14:20;;;;;;;;;;;17.40;81.10;;;;;;4873490;29;20578;-86
2022/04/30 12:16:48;;;;;;;;;;;17.70;80.80;;;;;;4875958;29;19936;-86
2022/04/30 12:25:18;;;;;;;;;;;17.60;81.70;;;;;;4950925;28;19926;-86
2022/04/30 12:27:58;;;;;;;;;;;17.70;80.60;;;;;;4916315;28;20518;-86
2022/04/30 12:30:54;;;;;;;;;;;18.00;81.10;;;;;;4967232;28;19953;-87
2022/04/30 12:33:23;;;;;;;;;;;17.90;80.90;;;;;;4965225;28;19933;-86
2022/04/30 12:36:11;;;;;;;;;;;17.80;80.90;;;;;;4952996;28;20478;-87
2022/04/30 12:38:52;;;;;;;;;;;18.10;80.70;;;;;;4948196;28;19949;-86
2022/04/30 12:41:20;;;;;;;;;;;19.90;80.10;;;;;;4965897;28;19941;-90
2022/04/30 12:43:47;;;;;;;;;;;18.40;78.70;;;;;;4948229;28;19930;-89
2022/04/30 12:46:21;;;;;;;;;;;18.60;79.10;;;;;;4946588;28;19930;-87
2022/04/30 12:48:50;;;;;;;;;;;18.80;79.40;;;;;;4918955;28;21226;-90
2022/04/30 12:51:19;;;;;;;;;;;19.00;78.20;;;;;;4933057;28;19954;-88
2022/04/30 12:53:47;;;;;;;;;;;19.10;77.90;;;;;;4935289;28;20453;-87
2022/04/30 12:56:16;;;;;;;;;;;19.20;76.10;;;;;;4937732;28;19930;-90
2022/04/30 12:58:44;;;;;;;;;;;19.30;76.40;;;;;;4965742;28;19930;-87
2022/04/30 13:01:11;;;;;;;;;;;19.50;76.10;;;;;;4947522;28;19934;-87
2022/04/30 13:03:40;;;;;;;;;;;19.70;75.10;;;;;;4954219;28;19934;-86
2022/04/30 13:06:08;;;;;;;;;;;19.70;76.40;;;;;;4942321;28;19933;-88
2022/04/30 13:14:26;;;;;;;;;;;19.70;75.10;;;;;;4963730;28;19927;-89
2022/04/30 13:17:19;;;;;;;;;;;19.70;74.70;;;;;;4958405;28;19931;-89
2022/04/30 13:19:51;;;;;;;;;;;19.70;73.60;;;;;;4947313;28;19933;-88
2022/04/30 13:23:02;;;;;;;;;;;19.80;73.70;;;;;;4924419;28;19930;-88
2022/04/30 13:26:14;;;;;;;;;;;20.20;74.40;;;;;;4955128;28;19937;-88
2022/04/30 13:28:47;;;;;;;;;;;20.60;73.30;;;;;;4959655;28;19930;-90
2022/04/30 13:31:17;;;;;;;;;;;21.00;73.10;;;;;;4943545;28;19926;-89
2022/04/30 13:33:45;;;;;;;;;;;20.90;71.10;;;;;;4955586;28;20010;-88
2022/04/30 13:36:20;;;;;;;;;;;21.30;72.80;;;;;;4926895;28;19934;-90
2022/04/30 13:38:47;;;;;;;;;;;21.40;71.50;;;;;;4939965;28;20321;-89
2022/04/30 13:41:15;;;;;;;;;;;21.40;70.00;;;;;;4938848;28;19933;-89
2022/04/30 13:43:42;;;;;;;;;;;21.50;70.00;;;;;;4954942;28;19945;-90
2022/04/30 13:46:13;;;;;;;;;;;21.50;71.10;;;;;;4939900;28;19930;-87
2022/04/30 13:48:50;;;;;;;;;;;21.60;70.00;;;;;;4923451;28;19930;-88
2022/04/30 13:51:18;;;;;;;;;;;21.90;70.30;;;;;;4935493;29;19931;-88
2022/04/30 13:53:45;;;;;;;;;;;22.10;68.60;;;;;;4949670;28;19941;-89
2022/04/30 13:56:15;;;;;;;;;;;22.40;70.10;;;;;;4960708;28;19933;-88
2022/04/30 13:58:44;;;;;;;;;;;22.70;70.40;;;;;;4932353;28;19938;-88
2022/04/30 14:01:12;;;;;;;;;;;23.00;68.40;;;;;;4937164;29;19926;-88
2022/04/30 14:03:40;;;;;;;;;;;23.10;66.00;;;;;;4949407;29;19941;-89
2022/04/30 14:06:08;;;;;;;;;;;23.30;67.40;;;;;;4960398;28;19942;-89
2022/04/30 14:08:35;;;;;;;;;;;23.60;67.90;;;;;;4939582;28;20020;-87
2022/04/30 14:11:03;;;;;;;;;;;23.90;68.10;;;;;;4951716;28;19926;-86
2022/04/30 14:16:17;;;;;;;;;;;24.10;64.40;;;;;;4968531;28;19930;-88
2022/04/30 14:18:46;;;;;;;;;;;24.20;65.00;;;;;;4939423;28;19934;-88
2022/04/30 14:21:14;;;;;;;;;;;24.30;64.60;;;;;;4954744;28;19934;-89
2022/04/30 14:23:42;;;;;;;;;;;24.30;64.20;;;;;;4942716;28;19933;-88
2022/04/30 14:26:11;;;;;;;;;;;24.30;64.10;;;;;;4964456;28;19934;-86
2022/04/30 14:28:40;;;;;;;;;;;24.10;63.40;;;;;;4984282;28;19914;-88
2022/04/30 14:31:07;;;;;;;;;;;23.80;62.80;;;;;;4968353;28;19945;-87
2022/04/30 14:33:36;;;;;;;;;;;23.50;63.10;;;;;;4970390;28;19930;-88
2022/04/30 14:36:05;;;;;;;;;;;23.40;62.80;;;;;;4950577;28;19926;-86
2022/04/30 14:38:32;;;;;;;;;;;23.40;63.40;;;;;;4979101;28;19937;-88
2022/04/30 14:40:59;;;;;;;;;;;23.60;63.50;;;;;;4955767;28;19953;-88
2022/04/30 14:43:27;;;;;;;;;;;24.00;63.30;;;;;;4933985;28;20235;-88
2022/04/30 14:45:56;;;;;;;;;;;24.30;62.90;;;;;;4943650;28;19933;-88
2022/04/30 14:48:24;;;;;;;;;;;24.60;62.30;;;;;;4958408;28;20010;-89
2022/04/30 14:50:52;;;;;;;;;;;24.60;59.60;;;;;;4949565;28;19930;-88
2022/04/30 14:53:20;;;;;;;;;;;24.80;59.00;;;;;;4949075;29;19930;-87
2022/04/30 14:55:51;;;;;;;;;;;25.10;61.40;;;;;;4925014;28;19926;-89
2022/04/30 14:58:19;;;;;;;;;;;25.30;60.00;;;;;;4945139;28;19934;-90
2022/04/30 15:00:48;;;;;;;;;;;25.90;60.60;;;;;;4946359;28;19930;-89
2022/04/30 15:03:15;;;;;;;;;;;25.90;60.70;;;;;;4939066;28;19926;-87
2022/04/30 15:05:43;;;;;;;;;;;26.00;57.80;;;;;;4917957;28;19931;-89
2022/04/30 15:08:11;;;;;;;;;;;26.10;59.80;;;;;;4972596;28;19937;-90
2022/04/30 15:10:41;;;;;;;;;;;26.20;59.10;;;;;;4950964;28;20470;-91
2022/04/30 15:13:09;;;;;;;;;;;26.10;58.40;;;;;;4917968;29;19934;-90
2022/04/30 15:15:38;;;;;;;;;;;26.10;55.70;;;;;;4921706;29;19938;-90
2022/04/30 15:18:06;;;;;;;;;;;26.00;57.40;;;;;;4920259;29;19930;-89
2022/04/30 15:20:34;;;;;;;;;;;26.00;56.30;;;;;;4932628;29;19930;-91
2022/04/30 15:23:01;;;;;;;;;;;25.80;56.70;;;;;;4913999;29;20405;-91
2022/04/30 15:25:29;;;;;;;;;;;25.70;56.30;;;;;;4910663;29;20322;-90
2022/04/30 15:27:57;;;;;;;;;;;25.20;56.40;;;;;;4921502;29;19927;-91